Terminal Aerodrome Forecast
Issued by NWS Jacksonville, FL

Home | Current Version | Previous Version | Text Only | Print | Product List | Glossary On
Versions: 1 2 3 4 5 6 7 8 9 10 11 12 13 14
000
FTUS42 KJAX 250534
TAFGNV
TAF
KGNV 250534Z 2506/2606 03003KT P6SM FEW040 SCT250
     FM251100 04004KT P6SM SCT020 BKN060
     FM251400 05010G15KT P6SM VCSH SCT030 BKN070
     FM252300 07007KT P6SM FEW040 SCT250=

USA.gov is the U.S. government's official web portal to all federal, state and local government web resources and services.